sensor_id;sensor_type;location;lat;lon;timestamp;P1;durP1;ratioP1;P2;durP2;ratioP2
11344;SDS011;5727;42.600;23.028;2024-03-07T00:01:07;21.13;;;16.47;;
11344;SDS011;5727;42.600;23.028;2024-03-07T00:03:34;20.60;;;15.27;;
11344;SDS011;5727;42.600;23.028;2024-03-07T00:06:01;21.10;;;16.07;;
11344;SDS011;5727;42.600;23.028;2024-03-07T00:08:28;19.33;;;15.10;;
11344;SDS011;5727;42.600;23.028;2024-03-07T00:10:55;20.60;;;16.10;;
11344;SDS011;5727;42.600;23.028;2024-03-07T00:13:22;16.70;;;13.00;;
11344;SDS011;5727;42.600;23.028;2024-03-07T00:15:50;16.43;;;13.73;;
11344;SDS011;5727;42.600;23.028;2024-03-07T00:18:18;13.87;;;11.90;;
11344;SDS011;5727;42.600;23.028;2024-03-07T00:20:45;8.43;;;7.50;;
11344;SDS011;5727;42.600;23.028;2024-03-07T00:23:12;6.70;;;5.77;;
11344;SDS011;5727;42.600;23.028;2024-03-07T00:25:39;6.97;;;5.90;;
11344;SDS011;5727;42.600;23.028;2024-03-07T00:28:06;6.00;;;5.50;;
11344;SDS011;5727;42.600;23.028;2024-03-07T00:30:33;5.73;;;5.23;;
11344;SDS011;5727;42.600;23.028;2024-03-07T00:33:00;5.50;;;5.03;;
11344;SDS011;5727;42.600;23.028;2024-03-07T00:35:29;7.10;;;5.90;;
11344;SDS011;5727;42.600;23.028;2024-03-07T00:37:56;5.73;;;5.13;;
11344;SDS011;5727;42.600;23.028;2024-03-07T00:40:23;5.33;;;4.93;;
11344;SDS011;5727;42.600;23.028;2024-03-07T00:42:49;6.60;;;6.00;;
11344;SDS011;5727;42.600;23.028;2024-03-07T00:45:16;5.60;;;5.10;;
11344;SDS011;5727;42.600;23.028;2024-03-07T00:47:43;6.13;;;5.53;;
11344;SDS011;5727;42.600;23.028;2024-03-07T00:50:10;7.77;;;5.27;;
11344;SDS011;5727;42.600;23.028;2024-03-07T00:52:39;5.43;;;4.93;;
11344;SDS011;5727;42.600;23.028;2024-03-07T00:55:07;6.03;;;5.43;;
11344;SDS011;5727;42.600;23.028;2024-03-07T00:57:34;4.47;;;4.17;;
11344;SDS011;5727;42.600;23.028;2024-03-07T01:00:01;5.23;;;4.73;;
11344;SDS011;5727;42.600;23.028;2024-03-07T01:02:39;4.90;;;4.50;;
11344;SDS011;5727;42.600;23.028;2024-03-07T01:05:08;4.87;;;4.47;;
11344;SDS011;5727;42.600;23.028;2024-03-07T01:07:39;4.50;;;4.20;;
11344;SDS011;5727;42.600;23.028;2024-03-07T01:10:08;5.47;;;4.90;;
11344;SDS011;5727;42.600;23.028;2024-03-07T01:12:35;4.70;;;4.30;;
11344;SDS011;5727;42.600;23.028;2024-03-07T01:15:02;4.90;;;4.50;;
11344;SDS011;5727;42.600;23.028;2024-03-07T01:17:30;6.20;;;5.60;;
11344;SDS011;5727;42.600;23.028;2024-03-07T01:19:57;6.37;;;4.30;;
11344;SDS011;5727;42.600;23.028;2024-03-07T01:22:24;3.97;;;3.67;;
11344;SDS011;5727;42.600;23.028;2024-03-07T01:24:52;5.13;;;4.17;;
11344;SDS011;5727;42.600;23.028;2024-03-07T01:27:20;4.47;;;4.17;;
11344;SDS011;5727;42.600;23.028;2024-03-07T01:29:49;4.70;;;4.33;;
11344;SDS011;5727;42.600;23.028;2024-03-07T01:32:16;4.70;;;4.30;;
11344;SDS011;5727;42.600;23.028;2024-03-07T01:34:43;5.03;;;4.63;;
11344;SDS011;5727;42.600;23.028;2024-03-07T01:37:10;4.10;;;3.80;;
11344;SDS011;5727;42.600;23.028;2024-03-07T01:39:37;3.90;;;3.60;;
11344;SDS011;5727;42.600;23.028;2024-03-07T01:42:06;4.13;;;3.83;;
11344;SDS011;5727;42.600;23.028;2024-03-07T01:44:33;4.07;;;3.77;;
11344;SDS011;5727;42.600;23.028;2024-03-07T01:47:00;3.60;;;3.30;;
11344;SDS011;5727;42.600;23.028;2024-03-07T01:49:28;3.00;;;2.80;;
11344;SDS011;5727;42.600;23.028;2024-03-07T01:51:55;3.03;;;2.80;;
11344;SDS011;5727;42.600;23.028;2024-03-07T01:54:23;3.20;;;3.00;;
11344;SDS011;5727;42.600;23.028;2024-03-07T01:56:50;2.63;;;2.50;;
11344;SDS011;5727;42.600;23.028;2024-03-07T01:59:18;2.70;;;2.60;;
11344;SDS011;5727;42.600;23.028;2024-03-07T02:01:46;2.87;;;2.77;;
11344;SDS011;5727;42.600;23.028;2024-03-07T02:04:13;2.50;;;2.40;;
11344;SDS011;5727;42.600;23.028;2024-03-07T02:06:40;2.40;;;2.30;;
11344;SDS011;5727;42.600;23.028;2024-03-07T02:09:08;2.50;;;2.40;;
11344;SDS011;5727;42.600;23.028;2024-03-07T02:11:35;2.50;;;2.40;;
11344;SDS011;5727;42.600;23.028;2024-03-07T02:14:02;2.87;;;2.70;;
11344;SDS011;5727;42.600;23.028;2024-03-07T02:16:30;3.03;;;2.60;;
11344;SDS011;5727;42.600;23.028;2024-03-07T02:18:57;2.57;;;2.47;;
11344;SDS011;5727;42.600;23.028;2024-03-07T02:21:27;2.70;;;2.53;;
11344;SDS011;5727;42.600;23.028;2024-03-07T02:23:54;3.40;;;3.20;;
11344;SDS011;5727;42.600;23.028;2024-03-07T02:26:21;3.03;;;2.83;;
11344;SDS011;5727;42.600;23.028;2024-03-07T02:28:48;2.73;;;2.50;;
11344;SDS011;5727;42.600;23.028;2024-03-07T02:31:15;2.87;;;2.67;;
11344;SDS011;5727;42.600;23.028;2024-03-07T02:33:42;2.80;;;2.60;;
11344;SDS011;5727;42.600;23.028;2024-03-07T02:36:09;2.63;;;2.53;;
11344;SDS011;5727;42.600;23.028;2024-03-07T02:38:37;3.33;;;3.03;;
11344;SDS011;5727;42.600;23.028;2024-03-07T02:41:04;2.97;;;2.80;;
11344;SDS011;5727;42.600;23.028;2024-03-07T02:43:31;2.63;;;2.43;;
11344;SDS011;5727;42.600;23.028;2024-03-07T02:45:58;2.40;;;2.30;;
11344;SDS011;5727;42.600;23.028;2024-03-07T02:48:25;2.60;;;2.50;;
11344;SDS011;5727;42.600;23.028;2024-03-07T02:50:52;2.90;;;2.80;;
11344;SDS011;5727;42.600;23.028;2024-03-07T02:53:19;3.07;;;2.87;;
11344;SDS011;5727;42.600;23.028;2024-03-07T02:55:48;2.40;;;2.30;;
11344;SDS011;5727;42.600;23.028;2024-03-07T02:58:15;2.47;;;2.37;;
11344;SDS011;5727;42.600;23.028;2024-03-07T03:00:42;2.40;;;2.30;;
11344;SDS011;5727;42.600;23.028;2024-03-07T03:03:08;2.40;;;2.30;;
11344;SDS011;5727;42.600;23.028;2024-03-07T03:05:35;2.40;;;2.30;;
11344;SDS011;5727;42.600;23.028;2024-03-07T03:08:02;2.90;;;2.70;;
11344;SDS011;5727;42.600;23.028;2024-03-07T03:10:32;3.07;;;2.87;;
11344;SDS011;5727;42.600;23.028;2024-03-07T03:13:00;3.10;;;2.90;;
11344;SDS011;5727;42.600;23.028;2024-03-07T03:15:27;3.80;;;3.00;;
11344;SDS011;5727;42.600;23.028;2024-03-07T03:17:55;2.87;;;2.67;;
11344;SDS011;5727;42.600;23.028;2024-03-07T03:20:24;3.00;;;2.80;;
11344;SDS011;5727;42.600;23.028;2024-03-07T03:22:51;2.80;;;2.60;;
11344;SDS011;5727;42.600;23.028;2024-03-07T03:25:19;3.10;;;2.90;;
11344;SDS011;5727;42.600;23.028;2024-03-07T03:27:46;3.37;;;3.17;;
11344;SDS011;5727;42.600;23.028;2024-03-07T03:30:15;3.43;;;3.23;;
11344;SDS011;5727;42.600;23.028;2024-03-07T03:32:44;3.57;;;3.37;;
11344;SDS011;5727;42.600;23.028;2024-03-07T03:35:12;3.77;;;3.57;;
11344;SDS011;5727;42.600;23.028;2024-03-07T03:37:40;4.03;;;3.63;;
11344;SDS011;5727;42.600;23.028;2024-03-07T03:40:08;4.07;;;3.77;;
11344;SDS011;5727;42.600;23.028;2024-03-07T03:42:37;4.57;;;3.57;;
11344;SDS011;5727;42.600;23.028;2024-03-07T03:45:04;3.37;;;3.17;;
11344;SDS011;5727;42.600;23.028;2024-03-07T03:47:34;3.90;;;3.50;;
11344;SDS011;5727;42.600;23.028;2024-03-07T03:50:04;3.43;;;3.23;;
11344;SDS011;5727;42.600;23.028;2024-03-07T03:52:32;3.20;;;3.00;;
11344;SDS011;5727;42.600;23.028;2024-03-07T03:55:00;3.77;;;3.47;;
11344;SDS011;5727;42.600;23.028;2024-03-07T03:57:29;3.10;;;2.90;;
11344;SDS011;5727;42.600;23.028;2024-03-07T03:59:56;5.27;;;4.70;;
11344;SDS011;5727;42.600;23.028;2024-03-07T04:02:24;5.27;;;4.77;;
11344;SDS011;5727;42.600;23.028;2024-03-07T04:04:53;4.70;;;4.20;;
11344;SDS011;5727;42.600;23.028;2024-03-07T04:07:20;4.37;;;3.83;;
11344;SDS011;5727;42.600;23.028;2024-03-07T04:09:47;4.60;;;4.20;;
11344;SDS011;5727;42.600;23.028;2024-03-07T04:12:14;4.87;;;4.40;;
11344;SDS011;5727;42.600;23.028;2024-03-07T04:14:41;4.73;;;4.33;;
11344;SDS011;5727;42.600;23.028;2024-03-07T04:17:09;6.60;;;5.90;;
11344;SDS011;5727;42.600;23.028;2024-03-07T04:19:38;5.53;;;4.97;;
11344;SDS011;5727;42.600;23.028;2024-03-07T04:22:07;5.00;;;4.60;;
11344;SDS011;5727;42.600;23.028;2024-03-07T04:24:34;5.20;;;4.77;;
11344;SDS011;5727;42.600;23.028;2024-03-07T04:27:02;4.57;;;4.17;;
11344;SDS011;5727;42.600;23.028;2024-03-07T04:29:30;5.03;;;4.50;;
11344;SDS011;5727;42.600;23.028;2024-03-07T04:31:57;4.97;;;4.53;;
11344;SDS011;5727;42.600;23.028;2024-03-07T04:34:24;5.87;;;5.27;;
11344;SDS011;5727;42.600;23.028;2024-03-07T04:36:52;5.63;;;4.73;;
11344;SDS011;5727;42.600;23.028;2024-03-07T04:39:20;6.20;;;5.60;;
11344;SDS011;5727;42.600;23.028;2024-03-07T04:41:55;6.03;;;5.50;;
11344;SDS011;5727;42.600;23.028;2024-03-07T04:44:22;6.27;;;5.67;;
11344;SDS011;5727;42.600;23.028;2024-03-07T04:46:50;6.30;;;5.77;;
11344;SDS011;5727;42.600;23.028;2024-03-07T04:49:20;8.83;;;5.87;;
11344;SDS011;5727;42.600;23.028;2024-03-07T04:51:49;6.67;;;5.97;;
11344;SDS011;5727;42.600;23.028;2024-03-07T04:54:16;7.00;;;6.30;;
11344;SDS011;5727;42.600;23.028;2024-03-07T04:56:44;7.03;;;6.30;;
11344;SDS011;5727;42.600;23.028;2024-03-07T04:59:11;8.73;;;6.70;;
11344;SDS011;5727;42.600;23.028;2024-03-07T05:01:38;9.10;;;7.40;;
11344;SDS011;5727;42.600;23.028;2024-03-07T05:04:06;7.53;;;6.83;;
11344;SDS011;5727;42.600;23.028;2024-03-07T05:06:33;8.13;;;6.63;;
11344;SDS011;5727;42.600;23.028;2024-03-07T05:09:00;8.67;;;7.30;;
11344;SDS011;5727;42.600;23.028;2024-03-07T05:11:28;7.40;;;6.57;;
11344;SDS011;5727;42.600;23.028;2024-03-07T05:13:56;7.63;;;6.83;;
11344;SDS011;5727;42.600;23.028;2024-03-07T05:16:24;7.77;;;7.07;;
11344;SDS011;5727;42.600;23.028;2024-03-07T05:18:51;8.73;;;6.30;;
11344;SDS011;5727;42.600;23.028;2024-03-07T05:21:18;8.47;;;6.60;;
11344;SDS011;5727;42.600;23.028;2024-03-07T05:24:03;7.23;;;6.60;;
11344;SDS011;5727;42.600;23.028;2024-03-07T05:26:31;8.73;;;7.67;;
11344;SDS011;5727;42.600;23.028;2024-03-07T05:29:01;8.97;;;7.90;;
11344;SDS011;5727;42.600;23.028;2024-03-07T05:31:32;10.60;;;9.03;;
11344;SDS011;5727;42.600;23.028;2024-03-07T05:34:00;14.07;;;10.00;;
11344;SDS011;5727;42.600;23.028;2024-03-07T05:36:29;9.27;;;7.90;;
11344;SDS011;5727;42.600;23.028;2024-03-07T05:38:57;10.63;;;7.93;;
11344;SDS011;5727;42.600;23.028;2024-03-07T05:41:24;13.60;;;11.30;;
11344;SDS011;5727;42.600;23.028;2024-03-07T05:43:54;6.00;;;5.50;;
11344;SDS011;5727;42.600;23.028;2024-03-07T05:46:23;6.70;;;6.10;;
11344;SDS011;5727;42.600;23.028;2024-03-07T05:48:50;7.20;;;6.50;;
11344;SDS011;5727;42.600;23.028;2024-03-07T05:51:21;6.83;;;6.13;;
11344;SDS011;5727;42.600;23.028;2024-03-07T05:53:48;7.20;;;5.77;;
11344;SDS011;5727;42.600;23.028;2024-03-07T05:56:15;6.30;;;5.80;;
11344;SDS011;5727;42.600;23.028;2024-03-07T05:58:42;6.67;;;5.77;;
11344;SDS011;5727;42.600;23.028;2024-03-07T06:01:09;9.27;;;5.93;;
11344;SDS011;5727;42.600;23.028;2024-03-07T06:03:39;8.20;;;6.10;;
11344;SDS011;5727;42.600;23.028;2024-03-07T06:06:06;7.00;;;6.30;;
11344;SDS011;5727;42.600;23.028;2024-03-07T06:08:36;6.97;;;6.20;;
11344;SDS011;5727;42.600;23.028;2024-03-07T06:11:07;7.33;;;6.03;;
11344;SDS011;5727;42.600;23.028;2024-03-07T06:13:34;6.70;;;6.00;;
11344;SDS011;5727;42.600;23.028;2024-03-07T06:16:01;7.77;;;6.10;;
11344;SDS011;5727;42.600;23.028;2024-03-07T06:18:32;6.70;;;6.10;;
11344;SDS011;5727;42.600;23.028;2024-03-07T06:21:02;7.27;;;6.10;;
11344;SDS011;5727;42.600;23.028;2024-03-07T06:23:30;6.93;;;5.50;;
11344;SDS011;5727;42.600;23.028;2024-03-07T06:25:57;6.30;;;5.70;;
11344;SDS011;5727;42.600;23.028;2024-03-07T06:48:35;11.10;;;9.73;;
11344;SDS011;5727;42.600;23.028;2024-03-07T06:51:02;9.73;;;8.83;;
11344;SDS011;5727;42.600;23.028;2024-03-07T06:53:31;10.73;;;9.50;;
11344;SDS011;5727;42.600;23.028;2024-03-07T06:55:58;12.77;;;10.23;;
11344;SDS011;5727;42.600;23.028;2024-03-07T06:58:26;12.53;;;10.10;;
11344;SDS011;5727;42.600;23.028;2024-03-07T07:00:55;11.13;;;9.80;;
11344;SDS011;5727;42.600;23.028;2024-03-07T07:03:24;14.60;;;10.20;;
11344;SDS011;5727;42.600;23.028;2024-03-07T07:05:54;11.20;;;9.83;;
11344;SDS011;5727;42.600;23.028;2024-03-07T07:08:26;12.63;;;9.20;;
11344;SDS011;5727;42.600;23.028;2024-03-07T07:10:54;11.87;;;9.57;;
11344;SDS011;5727;42.600;23.028;2024-03-07T07:13:29;11.87;;;10.03;;
11344;SDS011;5727;42.600;23.028;2024-03-07T07:15:56;10.80;;;9.70;;
11344;SDS011;5727;42.600;23.028;2024-03-07T07:18:23;10.20;;;9.20;;
11344;SDS011;5727;42.600;23.028;2024-03-07T07:20:51;11.80;;;10.07;;
11344;SDS011;5727;42.600;23.028;2024-03-07T07:23:20;13.30;;;8.53;;
11344;SDS011;5727;42.600;23.028;2024-03-07T07:25:52;11.57;;;7.80;;
11344;SDS011;5727;42.600;23.028;2024-03-07T07:28:22;11.10;;;8.10;;
11344;SDS011;5727;42.600;23.028;2024-03-07T07:30:49;10.33;;;8.53;;
11344;SDS011;5727;42.600;23.028;2024-03-07T07:33:16;10.10;;;8.97;;
11344;SDS011;5727;42.600;23.028;2024-03-07T07:35:44;11.10;;;8.97;;
11344;SDS011;5727;42.600;23.028;2024-03-07T07:38:11;13.27;;;10.37;;
11344;SDS011;5727;42.600;23.028;2024-03-07T07:40:41;14.93;;;11.63;;
11344;SDS011;5727;42.600;23.028;2024-03-07T07:43:09;14.57;;;10.27;;
11344;SDS011;5727;42.600;23.028;2024-03-07T07:45:40;13.10;;;10.60;;
11344;SDS011;5727;42.600;23.028;2024-03-07T07:48:07;12.17;;;10.57;;
11344;SDS011;5727;42.600;23.028;2024-03-07T07:50:36;11.07;;;9.27;;
11344;SDS011;5727;42.600;23.028;2024-03-07T07:53:04;14.53;;;10.63;;
11344;SDS011;5727;42.600;23.028;2024-03-07T07:55:34;14.97;;;11.00;;
11344;SDS011;5727;42.600;23.028;2024-03-07T07:58:03;14.70;;;11.07;;
11344;SDS011;5727;42.600;23.028;2024-03-07T08:00:31;16.30;;;10.97;;
11344;SDS011;5727;42.600;23.028;2024-03-07T08:03:00;10.67;;;7.37;;
11344;SDS011;5727;42.600;23.028;2024-03-07T08:05:33;9.10;;;7.53;;
11344;SDS011;5727;42.600;23.028;2024-03-07T08:08:02;8.43;;;6.00;;
11344;SDS011;5727;42.600;23.028;2024-03-07T08:10:31;10.13;;;8.87;;
11344;SDS011;5727;42.600;23.028;2024-03-07T08:13:00;6.73;;;6.03;;
11344;SDS011;5727;42.600;23.028;2024-03-07T08:15:33;5.97;;;5.27;;
11344;SDS011;5727;42.600;23.028;2024-03-07T08:18:01;4.60;;;4.07;;
11344;SDS011;5727;42.600;23.028;2024-03-07T08:20:33;4.73;;;4.30;;
11344;SDS011;5727;42.600;23.028;2024-03-07T08:23:01;5.53;;;4.50;;
11344;SDS011;5727;42.600;23.028;2024-03-07T08:25:28;4.53;;;2.77;;
11344;SDS011;5727;42.600;23.028;2024-03-07T08:27:56;2.93;;;2.73;;
11344;SDS011;5727;42.600;23.028;2024-03-07T08:30:26;2.47;;;2.33;;
11344;SDS011;5727;42.600;23.028;2024-03-07T08:32:56;3.90;;;3.60;;
11344;SDS011;5727;42.600;23.028;2024-03-07T08:35:27;6.87;;;3.03;;
11344;SDS011;5727;42.600;23.028;2024-03-07T08:37:54;2.33;;;2.13;;
11344;SDS011;5727;42.600;23.028;2024-03-07T08:40:23;2.73;;;2.20;;
11344;SDS011;5727;42.600;23.028;2024-03-07T08:42:51;2.20;;;2.03;;
11344;SDS011;5727;42.600;23.028;2024-03-07T08:45:19;2.13;;;2.03;;
11344;SDS011;5727;42.600;23.028;2024-03-07T08:47:49;2.37;;;2.27;;
11344;SDS011;5727;42.600;23.028;2024-03-07T08:50:19;2.53;;;2.10;;
11344;SDS011;5727;42.600;23.028;2024-03-07T08:52:47;2.20;;;2.10;;
11344;SDS011;5727;42.600;23.028;2024-03-07T08:55:16;2.30;;;2.10;;
11344;SDS011;5727;42.600;23.028;2024-03-07T08:57:44;3.07;;;2.13;;
11344;SDS011;5727;42.600;23.028;2024-03-07T09:00:14;5.03;;;2.80;;
11344;SDS011;5727;42.600;23.028;2024-03-07T09:02:49;2.57;;;2.37;;
11344;SDS011;5727;42.600;23.028;2024-03-07T09:05:18;9.30;;;5.87;;
11344;SDS011;5727;42.600;23.028;2024-03-07T09:07:47;2.50;;;2.30;;
11344;SDS011;5727;42.600;23.028;2024-03-07T09:10:15;3.37;;;3.07;;
11344;SDS011;5727;42.600;23.028;2024-03-07T09:12:42;3.87;;;2.50;;
11344;SDS011;5727;42.600;23.028;2024-03-07T09:15:10;2.30;;;2.10;;
11344;SDS011;5727;42.600;23.028;2024-03-07T09:17:38;3.83;;;2.23;;
11344;SDS011;5727;42.600;23.028;2024-03-07T09:20:08;1.70;;;1.60;;
11344;SDS011;5727;42.600;23.028;2024-03-07T09:22:39;2.07;;;1.97;;
11344;SDS011;5727;42.600;23.028;2024-03-07T09:25:07;3.33;;;2.00;;
11344;SDS011;5727;42.600;23.028;2024-03-07T09:27:35;3.17;;;1.97;;
11344;SDS011;5727;42.600;23.028;2024-03-07T09:30:03;2.20;;;2.00;;
11344;SDS011;5727;42.600;23.028;2024-03-07T09:32:34;2.53;;;2.10;;
11344;SDS011;5727;42.600;23.028;2024-03-07T09:35:02;1.70;;;1.60;;
11344;SDS011;5727;42.600;23.028;2024-03-07T09:37:34;1.73;;;1.43;;
11344;SDS011;5727;42.600;23.028;2024-03-07T09:40:05;2.67;;;2.00;;
11344;SDS011;5727;42.600;23.028;2024-03-07T09:42:34;2.60;;;2.40;;
11344;SDS011;5727;42.600;23.028;2024-03-07T09:45:08;4.40;;;2.23;;
11344;SDS011;5727;42.600;23.028;2024-03-07T09:47:40;1.97;;;1.63;;
11344;SDS011;5727;42.600;23.028;2024-03-07T09:50:09;2.50;;;2.17;;
11344;SDS011;5727;42.600;23.028;2024-03-07T09:52:38;4.03;;;1.87;;
11344;SDS011;5727;42.600;23.028;2024-03-07T09:55:06;3.90;;;2.20;;
11344;SDS011;5727;42.600;23.028;2024-03-07T09:57:34;2.67;;;2.13;;
11344;SDS011;5727;42.600;23.028;2024-03-07T10:00:05;5.13;;;3.53;;
11344;SDS011;5727;42.600;23.028;2024-03-07T10:02:38;2.10;;;1.90;;
11344;SDS011;5727;42.600;23.028;2024-03-07T10:05:07;2.67;;;2.00;;
11344;SDS011;5727;42.600;23.028;2024-03-07T10:07:43;2.70;;;2.50;;
11344;SDS011;5727;42.600;23.028;2024-03-07T10:10:10;3.73;;;3.13;;
11344;SDS011;5727;42.600;23.028;2024-03-07T10:12:37;3.00;;;2.20;;
11344;SDS011;5727;42.600;23.028;2024-03-07T10:15:05;2.20;;;2.00;;
11344;SDS011;5727;42.600;23.028;2024-03-07T10:17:38;4.10;;;2.40;;
11344;SDS011;5727;42.600;23.028;2024-03-07T10:20:06;2.40;;;2.20;;
11344;SDS011;5727;42.600;23.028;2024-03-07T10:22:38;3.27;;;1.90;;
11344;SDS011;5727;42.600;23.028;2024-03-07T10:25:08;2.00;;;1.77;;
11344;SDS011;5727;42.600;23.028;2024-03-07T10:27:38;4.13;;;1.80;;
11344;SDS011;5727;42.600;23.028;2024-03-07T10:30:09;2.20;;;2.00;;
11344;SDS011;5727;42.600;23.028;2024-03-07T10:32:45;2.90;;;1.70;;
11344;SDS011;5727;42.600;23.028;2024-03-07T10:35:14;4.23;;;1.83;;
11344;SDS011;5727;42.600;23.028;2024-03-07T10:37:49;2.10;;;1.90;;
11344;SDS011;5727;42.600;23.028;2024-03-07T10:40:21;2.20;;;2.07;;
11344;SDS011;5727;42.600;23.028;2024-03-07T10:42:50;1.50;;;1.40;;
11344;SDS011;5727;42.600;23.028;2024-03-07T10:45:22;1.83;;;1.67;;
11344;SDS011;5727;42.600;23.028;2024-03-07T10:47:53;1.73;;;1.63;;
11344;SDS011;5727;42.600;23.028;2024-03-07T10:50:25;3.37;;;2.17;;
11344;SDS011;5727;42.600;23.028;2024-03-07T10:53:10;2.20;;;2.00;;
11344;SDS011;5727;42.600;23.028;2024-03-07T10:56:00;2.23;;;1.60;;
11344;SDS011;5727;42.600;23.028;2024-03-07T10:58:42;1.60;;;1.50;;
11344;SDS011;5727;42.600;23.028;2024-03-07T11:01:20;2.03;;;1.83;;
11344;SDS011;5727;42.600;23.028;2024-03-07T11:03:50;2.50;;;1.60;;
11344;SDS011;5727;42.600;23.028;2024-03-07T11:06:23;1.70;;;1.60;;
11344;SDS011;5727;42.600;23.028;2024-03-07T11:08:53;2.07;;;1.70;;
11344;SDS011;5727;42.600;23.028;2024-03-07T11:11:31;2.73;;;1.90;;
11344;SDS011;5727;42.600;23.028;2024-03-07T11:13:58;1.70;;;1.60;;
11344;SDS011;5727;42.600;23.028;2024-03-07T11:16:26;2.63;;;1.67;;
11344;SDS011;5727;42.600;23.028;2024-03-07T11:21:47;1.87;;;1.70;;
11344;SDS011;5727;42.600;23.028;2024-03-07T11:24:24;1.67;;;1.57;;
11344;SDS011;5727;42.600;23.028;2024-03-07T11:26:59;2.47;;;1.43;;
11344;SDS011;5727;42.600;23.028;2024-03-07T11:32:17;2.97;;;1.40;;
11344;SDS011;5727;42.600;23.028;2024-03-07T11:34:48;1.80;;;1.40;;
11344;SDS011;5727;42.600;23.028;2024-03-07T11:37:18;3.53;;;1.83;;
11344;SDS011;5727;42.600;23.028;2024-03-07T11:40:09;2.30;;;1.50;;
11344;SDS011;5727;42.600;23.028;2024-03-07T11:42:45;1.70;;;1.60;;
11344;SDS011;5727;42.600;23.028;2024-03-07T11:45:15;2.80;;;1.50;;
11344;SDS011;5727;42.600;23.028;2024-03-07T11:47:51;2.80;;;2.00;;
11344;SDS011;5727;42.600;23.028;2024-03-07T11:50:25;2.20;;;1.50;;
11344;SDS011;5727;42.600;23.028;2024-03-07T11:52:53;2.53;;;1.70;;
11344;SDS011;5727;42.600;23.028;2024-03-07T11:55:21;5.73;;;2.93;;
11344;SDS011;5727;42.600;23.028;2024-03-07T11:57:50;7.63;;;3.30;;
11344;SDS011;5727;42.600;23.028;2024-03-07T12:00:18;2.03;;;1.73;;
11344;SDS011;5727;42.600;23.028;2024-03-07T12:02:49;4.23;;;1.73;;
11344;SDS011;5727;42.600;23.028;2024-03-07T12:05:16;3.00;;;1.90;;
11344;SDS011;5727;42.600;23.028;2024-03-07T12:07:45;3.23;;;1.70;;
11344;SDS011;5727;42.600;23.028;2024-03-07T12:10:12;2.73;;;1.90;;
11344;SDS011;5727;42.600;23.028;2024-03-07T12:12:40;2.00;;;1.80;;
11344;SDS011;5727;42.600;23.028;2024-03-07T12:15:10;9.27;;;4.00;;
11344;SDS011;5727;42.600;23.028;2024-03-07T12:17:44;2.70;;;1.60;;
11344;SDS011;5727;42.600;23.028;2024-03-07T12:20:17;2.33;;;1.77;;
11344;SDS011;5727;42.600;23.028;2024-03-07T12:22:56;2.73;;;1.60;;
11344;SDS011;5727;42.600;23.028;2024-03-07T12:25:26;4.53;;;1.40;;
11344;SDS011;5727;42.600;23.028;2024-03-07T12:28:01;1.60;;;1.50;;
11344;SDS011;5727;42.600;23.028;2024-03-07T12:30:33;2.13;;;1.93;;
11344;SDS011;5727;42.600;23.028;2024-03-07T12:33:03;2.70;;;2.17;;
11344;SDS011;5727;42.600;23.028;2024-03-07T12:35:32;3.27;;;2.07;;
11344;SDS011;5727;42.600;23.028;2024-03-07T12:38:00;3.50;;;2.17;;
11344;SDS011;5727;42.600;23.028;2024-03-07T12:40:30;3.73;;;1.90;;
11344;SDS011;5727;42.600;23.028;2024-03-07T12:42:59;2.40;;;2.20;;
11344;SDS011;5727;42.600;23.028;2024-03-07T12:45:43;2.90;;;2.57;;
11344;SDS011;5727;42.600;23.028;2024-03-07T12:48:12;4.27;;;3.13;;
11344;SDS011;5727;42.600;23.028;2024-03-07T12:50:40;3.20;;;3.00;;
11344;SDS011;5727;42.600;23.028;2024-03-07T12:53:13;2.77;;;2.57;;
11344;SDS011;5727;42.600;23.028;2024-03-07T12:55:49;3.40;;;2.70;;
11344;SDS011;5727;42.600;23.028;2024-03-07T12:58:24;3.50;;;3.20;;
11344;SDS011;5727;42.600;23.028;2024-03-07T13:01:23;3.13;;;2.50;;
11344;SDS011;5727;42.600;23.028;2024-03-07T13:03:56;3.30;;;2.50;;
11344;SDS011;5727;42.600;23.028;2024-03-07T13:06:26;3.33;;;3.07;;
11344;SDS011;5727;42.600;23.028;2024-03-07T13:09:03;3.43;;;2.97;;
11344;SDS011;5727;42.600;23.028;2024-03-07T13:11:36;4.30;;;3.13;;
11344;SDS011;5727;42.600;23.028;2024-03-07T13:14:12;8.27;;;6.57;;
11344;SDS011;5727;42.600;23.028;2024-03-07T13:16:41;5.20;;;4.17;;
11344;SDS011;5727;42.600;23.028;2024-03-07T13:19:08;3.87;;;3.00;;
11344;SDS011;5727;42.600;23.028;2024-03-07T13:21:39;5.70;;;4.63;;
11344;SDS011;5727;42.600;23.028;2024-03-07T13:24:10;18.33;;;7.87;;
11344;SDS011;5727;42.600;23.028;2024-03-07T13:29:35;8.77;;;6.47;;
11344;SDS011;5727;42.600;23.028;2024-03-07T13:32:20;10.37;;;6.70;;
11344;SDS011;5727;42.600;23.028;2024-03-07T13:34:49;7.80;;;5.57;;
11344;SDS011;5727;42.600;23.028;2024-03-07T13:37:29;8.73;;;6.73;;
11344;SDS011;5727;42.600;23.028;2024-03-07T13:40:37;5.97;;;4.67;;
11344;SDS011;5727;42.600;23.028;2024-03-07T14:01:23;5.87;;;4.50;;
11344;SDS011;5727;42.600;23.028;2024-03-07T14:07:20;15.87;;;6.30;;
11344;SDS011;5727;42.600;23.028;2024-03-07T14:10:14;11.87;;;5.40;;
11344;SDS011;5727;42.600;23.028;2024-03-07T14:13:07;11.97;;;5.53;;
11344;SDS011;5727;42.600;23.028;2024-03-07T14:22:00;22.30;;;9.87;;
11344;SDS011;5727;42.600;23.028;2024-03-07T14:27:50;16.23;;;6.50;;
11344;SDS011;5727;42.600;23.028;2024-03-07T14:30:36;15.10;;;5.50;;
11344;SDS011;5727;42.600;23.028;2024-03-07T14:33:08;16.50;;;7.43;;
11344;SDS011;5727;42.600;23.028;2024-03-07T14:35:57;14.33;;;8.27;;
11344;SDS011;5727;42.600;23.028;2024-03-07T14:38:39;5.37;;;4.70;;
11344;SDS011;5727;42.600;23.028;2024-03-07T14:41:14;7.37;;;5.27;;
11344;SDS011;5727;42.600;23.028;2024-03-07T14:43:42;11.30;;;7.70;;
11344;SDS011;5727;42.600;23.028;2024-03-07T14:46:10;9.87;;;6.47;;
11344;SDS011;5727;42.600;23.028;2024-03-07T14:48:39;9.50;;;8.00;;
11344;SDS011;5727;42.600;23.028;2024-03-07T14:51:07;6.67;;;5.73;;
11344;SDS011;5727;42.600;23.028;2024-03-07T14:53:40;6.30;;;5.70;;
11344;SDS011;5727;42.600;23.028;2024-03-07T14:56:08;7.53;;;5.83;;
11344;SDS011;5727;42.600;23.028;2024-03-07T14:58:36;9.70;;;5.40;;
11344;SDS011;5727;42.600;23.028;2024-03-07T15:01:05;9.77;;;7.60;;
11344;SDS011;5727;42.600;23.028;2024-03-07T15:03:32;9.63;;;7.13;;
11344;SDS011;5727;42.600;23.028;2024-03-07T15:05:59;7.23;;;5.80;;
11344;SDS011;5727;42.600;23.028;2024-03-07T15:08:27;13.80;;;10.07;;
11344;SDS011;5727;42.600;23.028;2024-03-07T15:10:57;7.93;;;6.03;;
11344;SDS011;5727;42.600;23.028;2024-03-07T15:13:34;7.37;;;5.93;;
11344;SDS011;5727;42.600;23.028;2024-03-07T15:16:01;7.53;;;6.13;;
11344;SDS011;5727;42.600;23.028;2024-03-07T15:18:28;6.37;;;5.70;;
11344;SDS011;5727;42.600;23.028;2024-03-07T15:20:56;7.43;;;5.77;;
11344;SDS011;5727;42.600;23.028;2024-03-07T15:23:23;7.47;;;5.20;;
11344;SDS011;5727;42.600;23.028;2024-03-07T15:25:50;10.10;;;5.33;;
11344;SDS011;5727;42.600;23.028;2024-03-07T15:28:18;10.87;;;6.37;;
11344;SDS011;5727;42.600;23.028;2024-03-07T15:30:46;7.57;;;5.67;;
11344;SDS011;5727;42.600;23.028;2024-03-07T15:33:14;5.10;;;4.60;;
11344;SDS011;5727;42.600;23.028;2024-03-07T15:35:42;7.20;;;5.07;;
11344;SDS011;5727;42.600;23.028;2024-03-07T15:38:09;6.57;;;5.13;;
11344;SDS011;5727;42.600;23.028;2024-03-07T15:40:39;8.20;;;5.40;;
11344;SDS011;5727;42.600;23.028;2024-03-07T15:43:06;11.47;;;5.37;;
11344;SDS011;5727;42.600;23.028;2024-03-07T15:45:35;10.83;;;5.67;;
11344;SDS011;5727;42.600;23.028;2024-03-07T15:48:02;8.50;;;5.40;;
11344;SDS011;5727;42.600;23.028;2024-03-07T15:50:38;10.00;;;5.80;;
11344;SDS011;5727;42.600;23.028;2024-03-07T15:53:13;15.73;;;8.97;;
11344;SDS011;5727;42.600;23.028;2024-03-07T15:55:40;18.03;;;9.80;;
11344;SDS011;5727;42.600;23.028;2024-03-07T15:58:08;18.40;;;9.23;;
11344;SDS011;5727;42.600;23.028;2024-03-07T16:00:37;20.50;;;9.53;;